createdAt,value
2022-09-15T00:00:22.468Z,100197.69
2022-09-15T00:02:51.051Z,100198.72
2022-09-15T00:05:18.845Z,100197.06
2022-09-15T00:07:46.971Z,100193.66
2022-09-15T00:10:16.591Z,100192.78
2022-09-15T00:12:44.908Z,100185.00
2022-09-15T00:15:13.712Z,100183.31
2022-09-15T00:17:41.689Z,100180.66
2022-09-15T00:20:10.636Z,100183.78
2022-09-15T00:22:38.404Z,100189.13
2022-09-15T00:25:06.431Z,100196.25
2022-09-15T00:27:35.617Z,100186.81
2022-09-15T00:30:04.650Z,100178.09
2022-09-15T00:32:32.881Z,100177.47
2022-09-15T00:35:00.590Z,100169.47
2022-09-15T00:37:28.201Z,100161.84
2022-09-15T00:39:55.934Z,100167.28
2022-09-15T00:42:24.043Z,100158.44
2022-09-15T00:44:56.229Z,100153.34
2022-09-15T00:47:26.810Z,100151.41
2022-09-15T00:49:59.341Z,100150.56
2022-09-15T00:52:34.570Z,100137.50
2022-09-15T00:55:06.913Z,100139.44
2022-09-15T00:57:45.487Z,100137.72
2022-09-15T01:00:17.912Z,100146.34
2022-09-15T01:02:47.102Z,100141.13
2022-09-15T01:05:17.098Z,100141.81
2022-09-15T01:07:52.072Z,100153.19
2022-09-15T01:10:24.811Z,100141.94
2022-09-15T01:12:54.829Z,100139.16
2022-09-15T01:15:28.659Z,100138.91
2022-09-15T01:18:12.988Z,100130.84
2022-09-15T01:21:01.500Z,100123.81
2022-09-15T01:24:01.707Z,100117.63
2022-09-15T01:26:58.094Z,100111.22
2022-09-15T01:29:59.298Z,100108.47
2022-09-15T01:32:34.739Z,100095.03
2022-09-15T01:35:10.389Z,100096.00
2022-09-15T01:37:43.933Z,100100.38
2022-09-15T01:40:15.209Z,100097.81
2022-09-15T01:42:43.108Z,100093.34
2022-09-15T01:45:17.974Z,100084.03
2022-09-15T01:47:47.827Z,100079.31
2022-09-15T01:50:20.186Z,100073.13
2022-09-15T01:52:52.388Z,100084.50
2022-09-15T01:55:26.954Z,100081.00
2022-09-15T01:57:54.495Z,100086.44
2022-09-15T02:00:23.436Z,100087.41
2022-09-15T02:02:56.250Z,100084.75
2022-09-15T02:05:28.437Z,100078.72
2022-09-15T02:08:04.559Z,100080.19
2022-09-15T02:10:38.880Z,100076.78
2022-09-15T02:13:12.508Z,100075.22
2022-09-15T02:15:45.368Z,100077.63
2022-09-15T02:18:17.055Z,100073.28
2022-09-15T02:20:49.999Z,100077.72
2022-09-15T02:23:23.745Z,100071.69
2022-09-15T02:25:55.972Z,100061.19
2022-09-15T02:28:30.320Z,100056.44
2022-09-15T02:31:01.088Z,100061.75
2022-09-15T02:33:35.203Z,100064.56
2022-09-15T02:36:04.977Z,100056.69
2022-09-15T02:38:39.031Z,100053.41
2022-09-15T02:41:06.825Z,100055.22
2022-09-15T02:43:34.460Z,100041.09
2022-09-15T02:46:07.029Z,100049.19
2022-09-15T02:48:35.125Z,100050.38
2022-09-15T02:51:02.715Z,100056.63
2022-09-15T02:53:30.763Z,100049.53
2022-09-15T02:55:58.955Z,100046.00
2022-09-15T02:58:26.482Z,100039.25
2022-09-15T03:00:54.259Z,100042.84
2022-09-15T03:03:23.332Z,100044.16
2022-09-15T03:05:51.018Z,100037.25
2022-09-15T03:08:18.938Z,100036.53
2022-09-15T03:10:46.509Z,100039.44
2022-09-15T03:13:14.055Z,100037.63
2022-09-15T03:15:42.667Z,100014.25
2022-09-15T03:18:11.115Z,100022.97
2022-09-15T03:20:40.160Z,100019.34
2022-09-15T03:23:08.649Z,100014.88
2022-09-15T03:25:36.785Z,100007.47
2022-09-15T03:28:04.375Z,100019.91
2022-09-15T03:30:32.236Z,100039.38
2022-09-15T03:32:59.795Z,100033.47
2022-09-15T03:35:27.341Z,100029.81
2022-09-15T03:37:56.822Z,100018.56
2022-09-15T03:40:27.044Z,100019.44
2022-09-15T03:42:54.814Z,100024.84
2022-09-15T03:45:22.509Z,100032.66
2022-09-15T03:47:50.125Z,100042.88
2022-09-15T03:50:18.025Z,100041.50
2022-09-15T03:52:45.918Z,100047.56
2022-09-15T03:55:15.284Z,100040.53
2022-09-15T03:57:44.495Z,100039.69
2022-09-15T04:00:13.534Z,100031.59
2022-09-15T04:02:41.298Z,100014.06
2022-09-15T04:05:09.947Z,100015.88
2022-09-15T04:07:38.262Z,100023.06
2022-09-15T04:10:06.635Z,100018.00
2022-09-15T04:12:36.547Z,100009.28
2022-09-15T04:15:04.910Z,100000.34
2022-09-15T04:17:33.252Z,100009.06
2022-09-15T04:20:01.011Z,100007.97
2022-09-15T04:22:30.789Z,100010.44
2022-09-15T04:24:58.408Z,100014.78
2022-09-15T04:27:26.156Z,100021.72
2022-09-15T04:29:55.601Z,100014.44
2022-09-15T04:32:23.386Z,100004.53
2022-09-15T04:34:51.038Z,100002.63
2022-09-15T04:37:18.687Z,99999.63
2022-09-15T04:39:46.400Z,100001.22
2022-09-15T04:42:13.993Z,99998.31
2022-09-15T04:44:42.153Z,99986.38
2022-09-15T04:47:11.253Z,99981.53
2022-09-15T04:49:38.792Z,99965.97
2022-09-15T04:52:09.718Z,99970.94
2022-09-15T04:54:37.993Z,99968.75
2022-09-15T04:57:06.055Z,99961.28
2022-09-15T04:59:35.113Z,99969.63
2022-09-15T05:02:03.210Z,99977.38
2022-09-15T05:04:32.799Z,99975.06
2022-09-15T05:07:00.637Z,99980.91
2022-09-15T05:09:28.414Z,99971.56
2022-09-15T05:11:56.115Z,99968.69
2022-09-15T05:14:23.938Z,99975.47
2022-09-15T05:16:51.864Z,99969.66
2022-09-15T05:19:19.466Z,99968.28
2022-09-15T05:21:48.622Z,99964.34
2022-09-15T05:24:16.236Z,99970.16
2022-09-15T05:26:43.796Z,99966.41
2022-09-15T05:29:11.577Z,99963.63
2022-09-15T05:31:39.493Z,99958.50
2022-09-15T05:34:07.799Z,99961.91
2022-09-15T05:36:35.751Z,99956.41
2022-09-15T05:39:04.731Z,99954.75
2022-09-15T05:41:32.476Z,99947.38
2022-09-15T05:44:00.198Z,99943.88
2022-09-15T05:46:28.713Z,99951.47
2022-09-15T05:48:58.585Z,99952.13
2022-09-15T05:51:26.406Z,99950.50
2022-09-15T05:53:54.010Z,99940.78
2022-09-15T05:56:23.264Z,99934.19
2022-09-15T05:58:51.173Z,99939.69
2022-09-15T06:01:20.699Z,99928.59
2022-09-15T06:03:48.589Z,99939.28
2022-09-15T06:06:16.715Z,99944.63
2022-09-15T06:08:48.115Z,99941.50
2022-09-15T06:11:18.056Z,99935.72
2022-09-15T06:13:47.798Z,99938.81
2022-09-15T06:16:18.562Z,99939.97
2022-09-15T06:18:47.417Z,99936.59
2022-09-15T06:21:17.950Z,99943.91
2022-09-15T06:23:50.045Z,99935.34
2022-09-15T06:26:19.263Z,99933.81
2022-09-15T06:28:50.730Z,99931.25
2022-09-15T06:31:19.686Z,99923.38
2022-09-15T06:33:50.962Z,99920.44
2022-09-15T06:36:20.070Z,99919.56
2022-09-15T06:38:48.369Z,99919.16
2022-09-15T06:41:16.695Z,99919.03
2022-09-15T06:43:44.871Z,99921.53
2022-09-15T06:46:15.505Z,99917.34
2022-09-15T06:48:47.563Z,99924.81
2022-09-15T06:51:18.068Z,99927.38
2022-09-15T06:53:46.628Z,99926.38
2022-09-15T06:56:16.167Z,99938.22
2022-09-15T06:58:47.249Z,99931.56
2022-09-15T07:01:20.876Z,99923.69
2022-09-15T07:03:48.936Z,99927.78
2022-09-15T07:06:16.616Z,99928.09
2022-09-15T07:08:44.635Z,99933.56
2022-09-15T07:11:13.583Z,99918.81
2022-09-15T07:13:41.629Z,99917.94
2022-09-15T07:16:12.052Z,99927.50
2022-09-15T07:18:43.444Z,99917.69
2022-09-15T07:21:14.534Z,99916.84
2022-09-15T07:23:42.912Z,99922.91
2022-09-15T07:26:12.531Z,99924.94
2022-09-15T07:28:42.696Z,99925.31
2022-09-15T07:31:13.371Z,99917.75
2022-09-15T07:33:42.770Z,99918.63
2022-09-15T07:36:11.057Z,99921.16
2022-09-15T07:38:40.289Z,99914.94
2022-09-15T07:41:10.194Z,99908.47
2022-09-15T07:43:38.085Z,99897.63
2022-09-15T07:46:07.481Z,99895.78
2022-09-15T07:48:36.853Z,99888.72
2022-09-15T07:51:06.110Z,99889.88
2022-09-15T07:53:33.791Z,99899.06
2022-09-15T07:56:01.494Z,99894.22
2022-09-15T07:58:29.455Z,99890.38
2022-09-15T08:01:02.674Z,99888.31
2022-09-15T08:03:30.466Z,99889.34
2022-09-15T08:05:58.854Z,99889.53
2022-09-15T08:08:28.803Z,99889.34
2022-09-15T08:10:58.093Z,99885.97
2022-09-15T08:13:26.720Z,99879.88
2022-09-15T08:15:54.406Z,99872.06
2022-09-15T08:18:22.092Z,99873.38
2022-09-15T08:20:49.684Z,99867.94
2022-09-15T08:23:17.433Z,99865.66
2022-09-15T08:25:46.384Z,99865.41
2022-09-15T08:28:14.156Z,99868.84
2022-09-15T08:30:41.953Z,99852.66
2022-09-15T08:33:09.722Z,99855.28
2022-09-15T08:35:37.726Z,99847.63
2022-09-15T08:38:05.383Z,99855.13
2022-09-15T08:40:37.666Z,99853.81
2022-09-15T08:43:18.967Z,99850.00
2022-09-15T08:45:52.843Z,99834.94
2022-09-15T08:48:27.728Z,99832.28
2022-09-15T08:50:58.107Z,99838.38
2022-09-15T08:53:29.739Z,99836.06
2022-09-15T08:56:00.353Z,99836.06
2022-09-15T08:58:32.284Z,99835.59
2022-09-15T09:01:05.321Z,99825.16
2022-09-15T09:03:49.340Z,99817.47
2022-09-15T09:06:29.447Z,99828.00
2022-09-15T09:09:18.526Z,99826.34
2022-09-15T09:12:05.226Z,99827.03
2022-09-15T09:14:47.079Z,99814.09
2022-09-15T09:17:29.120Z,99810.28
2022-09-15T09:20:20.611Z,99806.25
2022-09-15T09:22:50.959Z,99817.69
2022-09-15T09:25:27.704Z,99806.25
2022-09-15T09:27:57.042Z,99812.97
2022-09-15T09:30:31.170Z,99813.13
2022-09-15T09:33:14.603Z,99808.59
2022-09-15T09:35:44.715Z,99812.75
2022-09-15T09:38:20.291Z,99810.38
2022-09-15T09:40:49.846Z,99812.44
2022-09-15T09:43:17.798Z,99814.84
2022-09-15T09:45:47.094Z,99819.34
2022-09-15T09:48:19.096Z,99827.00
2022-09-15T09:50:47.355Z,99826.97
2022-09-15T09:53:24.165Z,99816.22
2022-09-15T09:55:52.385Z,99821.59
2022-09-15T09:58:22.221Z,99827.13
2022-09-15T10:00:51.919Z,99824.16
2022-09-15T10:03:21.418Z,99822.31
2022-09-15T10:06:03.625Z,99808.88
2022-09-15T10:08:31.844Z,99800.81
2022-09-15T10:11:04.235Z,99804.84
2022-09-15T10:13:34.533Z,99799.63
2022-09-15T10:16:06.838Z,99816.91
2022-09-15T10:18:36.888Z,99820.25
2022-09-15T10:21:08.457Z,99816.34
2022-09-15T10:23:36.533Z,99818.22
2022-09-15T10:26:22.603Z,99815.88
2022-09-15T10:29:15.406Z,99820.38
2022-09-15T10:31:45.935Z,99816.84
2022-09-15T10:34:30.396Z,99824.06
2022-09-15T10:37:08.330Z,99829.56
2022-09-15T10:39:51.574Z,99826.53
2022-09-15T10:42:49.162Z,99817.44
2022-09-15T10:45:24.749Z,99824.81
2022-09-15T10:48:20.100Z,99806.34
2022-09-15T10:51:03.758Z,99815.91
2022-09-15T10:53:58.058Z,99805.16
2022-09-15T10:56:30.543Z,99809.41
2022-09-15T10:59:20.632Z,99817.25
2022-09-15T11:02:03.147Z,99817.25
2022-09-15T11:04:44.787Z,99818.44
2022-09-15T11:07:19.809Z,99820.78
2022-09-15T11:09:54.277Z,99808.34
2022-09-15T11:12:31.423Z,99814.53
2022-09-15T11:15:17.026Z,99816.72
2022-09-15T11:17:58.917Z,99806.44
2022-09-15T11:21:01.910Z,99809.31
2022-09-15T11:23:34.644Z,99810.28
2022-09-15T11:26:09.089Z,99805.78
2022-09-15T11:28:42.959Z,99799.56
2022-09-15T11:31:17.115Z,99788.81
2022-09-15T11:33:48.940Z,99792.88
2022-09-15T11:36:23.094Z,99773.94
2022-09-15T11:38:56.721Z,99775.28
2022-09-15T11:41:28.623Z,99774.66
2022-09-15T11:44:07.125Z,99765.75
2022-09-15T11:46:50.938Z,99768.69
2022-09-15T11:49:23.356Z,99768.53
2022-09-15T11:51:59.008Z,99755.31
2022-09-15T11:54:34.451Z,99759.72
2022-09-15T11:57:02.424Z,99756.19
2022-09-15T11:59:38.871Z,99749.34
2022-09-15T12:02:17.078Z,99750.00
2022-09-15T12:05:02.058Z,99736.38
2022-09-15T12:07:36.194Z,99746.97
2022-09-15T12:10:15.164Z,99755.56
2022-09-15T12:12:44.629Z,99761.25
2022-09-15T12:15:17.958Z,99755.56
2022-09-15T12:17:52.132Z,99745.94
2022-09-15T12:20:25.185Z,99744.13
2022-09-15T12:23:02.561Z,99758.91
2022-09-15T12:25:40.002Z,99755.72
2022-09-15T12:28:37.055Z,99755.69
2022-09-15T12:31:13.655Z,99748.13
2022-09-15T12:33:45.786Z,99741.75
2022-09-15T12:36:41.107Z,99747.31
2022-09-15T12:39:29.886Z,99747.59
2022-09-15T12:42:07.710Z,99753.63
2022-09-15T12:44:37.161Z,99745.72
2022-09-15T12:47:17.370Z,99755.50
2022-09-15T12:49:48.360Z,99757.38
2022-09-15T12:52:16.861Z,99750.97
2022-09-15T12:54:53.561Z,99757.38
2022-09-15T12:57:26.581Z,99751.00
2022-09-15T13:00:33.802Z,99738.75
2022-09-15T13:03:02.204Z,99741.91
2022-09-15T13:06:06.709Z,99740.41
2022-09-15T13:09:21.609Z,99749.00
2022-09-15T13:11:53.949Z,99754.00
2022-09-15T13:14:27.489Z,99757.56
2022-09-15T13:17:01.151Z,99753.34
2022-09-15T13:19:37.755Z,99757.56
2022-09-15T13:22:16.919Z,99763.47
2022-09-15T13:24:48.602Z,99763.09
2022-09-15T13:27:21.646Z,99761.56
2022-09-15T13:29:57.933Z,99759.00
2022-09-15T13:32:35.987Z,99768.53
2022-09-15T13:35:32.305Z,99766.34
2022-09-15T13:38:38.198Z,99766.28
2022-09-15T13:41:40.740Z,99770.44
2022-09-15T13:44:37.971Z,99766.59
2022-09-15T13:47:35.102Z,99763.38
2022-09-15T13:50:14.450Z,99766.22
2022-09-15T13:53:12.348Z,99759.19
2022-09-15T13:55:43.362Z,99767.53
2022-09-15T14:01:05.834Z,99766.38
2022-09-15T14:03:42.031Z,99764.84
2022-09-15T14:06:13.616Z,99755.22
2022-09-15T14:08:44.086Z,99742.44
2022-09-15T14:11:14.364Z,99758.91
2022-09-15T14:13:46.318Z,99765.00
2022-09-15T14:16:30.555Z,99771.72
2022-09-15T14:19:00.753Z,99775.09
2022-09-15T14:21:30.890Z,99774.13
2022-09-15T14:24:02.795Z,99778.16
2022-09-15T14:26:33.828Z,99776.16
2022-09-15T14:29:03.659Z,99777.69
2022-09-15T14:31:34.537Z,99768.09
2022-09-15T14:34:06.458Z,99774.66
2022-09-15T14:36:34.941Z,99781.19
2022-09-15T14:39:18.515Z,99782.66
2022-09-15T14:41:47.380Z,99781.63
2022-09-15T14:47:17.828Z,99779.09
2022-09-15T14:49:47.501Z,99787.16
2022-09-15T14:52:24.503Z,99765.00
2022-09-15T14:54:57.773Z,99773.16
2022-09-15T14:57:31.111Z,99774.34
2022-09-15T15:00:06.814Z,99769.63
2022-09-15T15:02:48.723Z,99767.56
2022-09-15T15:05:22.359Z,99770.19
2022-09-15T15:07:51.949Z,99766.47
2022-09-15T15:10:26.079Z,99770.78
2022-09-15T15:12:59.146Z,99764.91
2022-09-15T15:15:28.398Z,99762.66
2022-09-15T15:17:57.501Z,99758.94
2022-09-15T15:20:28.352Z,99757.50
2022-09-15T15:23:14.975Z,99748.72
2022-09-15T15:25:43.746Z,99765.25
2022-09-15T15:28:30.614Z,99761.19
2022-09-15T15:31:15.759Z,99757.25
2022-09-15T15:33:48.526Z,99751.47
2022-09-15T15:36:22.015Z,99749.75
2022-09-15T15:38:52.935Z,99756.31
2022-09-15T15:41:23.253Z,99757.75
2022-09-15T15:44:02.509Z,99749.41
2022-09-15T15:46:47.748Z,99746.34
2022-09-15T15:49:15.826Z,99742.44
2022-09-15T15:51:44.951Z,99750.34
2022-09-15T15:54:13.531Z,99748.44
2022-09-15T15:56:41.236Z,99757.75
2022-09-15T15:59:11.783Z,99756.25
2022-09-15T16:01:40.034Z,99757.13
2022-09-15T16:04:07.795Z,99762.09
2022-09-15T16:06:36.217Z,99755.34
2022-09-15T16:09:05.747Z,99767.63
2022-09-15T16:11:34.711Z,99764.25
2022-09-15T16:14:02.374Z,99759.94
2022-09-15T16:16:31.624Z,99766.13
2022-09-15T16:18:59.520Z,99764.00
2022-09-15T16:21:32.360Z,99768.13
2022-09-15T16:24:00.558Z,99754.38
2022-09-15T16:26:29.631Z,99772.66
2022-09-15T16:28:58.050Z,99765.63
2022-09-15T16:31:25.735Z,99758.88
2022-09-15T16:33:53.405Z,99756.22
2022-09-15T16:36:21.222Z,99764.66
2022-09-15T16:38:49.707Z,99769.16
2022-09-15T16:41:18.908Z,99776.91
2022-09-15T16:43:48.253Z,99765.94
2022-09-15T16:46:16.399Z,99775.47
2022-09-15T16:48:44.396Z,99782.22
2022-09-15T16:51:28.001Z,99791.19
2022-09-15T16:53:57.483Z,99793.53
2022-09-15T16:56:25.767Z,99793.38
2022-09-15T16:58:59.831Z,99794.78
2022-09-15T17:01:28.721Z,99798.41
2022-09-15T17:03:57.074Z,99810.75
2022-09-15T17:06:24.980Z,99814.53
2022-09-15T17:08:54.851Z,99810.31
2022-09-15T17:11:23.190Z,99823.66
2022-09-15T17:13:51.336Z,99830.59
2022-09-15T17:16:20.720Z,99827.75
2022-09-15T17:18:49.586Z,99831.66
2022-09-15T17:21:18.187Z,99839.22
2022-09-15T17:23:48.446Z,99842.16
2022-09-15T17:26:19.690Z,99844.38
2022-09-15T17:28:48.363Z,99852.63
2022-09-15T17:31:18.277Z,99855.09
2022-09-15T17:33:49.249Z,99860.53
2022-09-15T17:36:17.709Z,99863.09
2022-09-15T17:38:45.488Z,99857.78
2022-09-15T17:41:14.879Z,99858.06
2022-09-15T17:43:42.893Z,99854.41
2022-09-15T17:46:11.260Z,99846.22
2022-09-15T17:48:39.715Z,99843.81
2022-09-15T17:51:13.107Z,99833.91
2022-09-15T17:53:41.601Z,99839.97
2022-09-15T17:56:09.273Z,99845.56
2022-09-15T17:58:37.100Z,99837.38
2022-09-15T18:01:05.043Z,99828.22
2022-09-15T18:03:34.182Z,99834.75
2022-09-15T18:06:03.839Z,99834.25
2022-09-15T18:08:33.701Z,99830.59
2022-09-15T18:11:01.987Z,99824.34
2022-09-15T20:22:54.050Z,99846.91
2022-09-15T20:25:23.231Z,99840.25
2022-09-15T20:27:51.527Z,99830.34
2022-09-15T20:30:20.042Z,99828.41
2022-09-15T20:32:47.769Z,99819.81
2022-09-15T20:35:16.341Z,99824.06
2022-09-15T20:37:44.807Z,99822.34
2022-09-15T20:40:15.486Z,99829.25
2022-09-15T20:42:43.797Z,99827.09
2022-09-15T20:45:12.623Z,99830.34
2022-09-15T20:47:42.242Z,99816.19
2022-09-15T20:50:10.610Z,99813.16
2022-09-15T20:52:38.989Z,99819.81
2022-09-15T20:55:07.711Z,99811.75
2022-09-15T20:57:37.574Z,99803.03
2022-09-15T21:00:06.888Z,99799.50
2022-09-15T21:02:36.648Z,99802.53
2022-09-15T21:05:05.431Z,99796.75
2022-09-15T21:07:33.882Z,99797.34
2022-09-15T21:10:01.928Z,99803.16
2022-09-15T21:12:29.914Z,99805.81
2022-09-15T21:14:59.349Z,99800.72
2022-09-15T21:17:27.221Z,99801.69
2022-09-15T21:19:55.276Z,99793.22
2022-09-15T21:22:23.352Z,99786.34
2022-09-15T21:24:50.995Z,99782.38
2022-09-15T21:27:18.639Z,99777.91
2022-09-15T21:29:46.642Z,99774.25
2022-09-15T21:32:15.728Z,99764.72
2022-09-15T21:34:43.858Z,99766.16
2022-09-15T21:37:11.680Z,99762.16
2022-09-15T21:39:40.123Z,99771.75
2022-09-15T21:42:07.943Z,99772.06
2022-09-15T21:44:35.775Z,99775.59
2022-09-15T21:47:03.708Z,99778.97
2022-09-15T21:49:32.888Z,99782.81
2022-09-15T21:52:00.909Z,99777.84
2022-09-15T21:54:28.536Z,99783.28
2022-09-15T21:56:56.150Z,99784.47
2022-09-15T21:59:24.176Z,99778.16
2022-09-15T22:01:51.910Z,99792.06
2022-09-15T22:04:19.654Z,99791.34
2022-09-15T22:06:49.001Z,99793.16
2022-09-15T22:09:18.708Z,99782.88
2022-09-15T22:11:47.061Z,99788.06
2022-09-15T22:14:16.097Z,99783.34
2022-09-15T22:16:44.167Z,99782.63
2022-09-15T22:19:12.846Z,99786.34
2022-09-15T22:21:41.358Z,99782.47
2022-09-15T22:24:12.673Z,99780.63
2022-09-15T22:26:42.084Z,99784.59
2022-09-15T22:29:10.419Z,99785.41
2022-09-15T22:31:38.525Z,99786.28
2022-09-15T22:34:06.424Z,99790.72
2022-09-15T22:36:34.725Z,99786.03
2022-09-15T22:39:03.442Z,99775.78
2022-09-15T22:41:34.096Z,99780.75
2022-09-15T22:44:02.554Z,99782.75
2022-09-15T22:46:30.662Z,99785.31
2022-09-15T22:48:58.518Z,99776.75
2022-09-15T22:51:26.243Z,99785.78
2022-09-15T22:53:54.534Z,99781.06
2022-09-15T22:56:22.670Z,99777.66
2022-09-15T22:58:52.247Z,99781.28
2022-09-15T23:01:22.248Z,99772.47
2022-09-15T23:03:50.709Z,99769.72
2022-09-15T23:06:18.483Z,99767.38
2022-09-15T23:08:50.618Z,99774.28
2022-09-15T23:11:18.921Z,99772.22
2022-09-15T23:13:47.790Z,99778.06
2022-09-15T23:16:17.602Z,99772.75
2022-09-15T23:18:46.739Z,99774.81
2022-09-15T23:21:15.023Z,99777.97
2022-09-15T23:23:44.439Z,99770.38
2022-09-15T23:26:13.597Z,99774.81
2022-09-15T23:28:41.383Z,99767.56
2022-09-15T23:31:11.771Z,99761.41
2022-09-15T23:33:40.945Z,99767.25
2022-09-15T23:36:11.747Z,99759.13
2022-09-15T23:38:41.021Z,99756.16
2022-09-15T23:41:09.627Z,99744.66
2022-09-15T23:43:37.702Z,99740.56
2022-09-15T23:46:06.381Z,99729.09
2022-09-15T23:48:34.370Z,99736.97
2022-09-15T23:51:07.416Z,99721.97
2022-09-15T23:53:35.758Z,99726.81
2022-09-15T23:56:04.055Z,99729.00
2022-09-15T23:58:31.946Z,99725.41
